Mountain View Mountain View Mountain View Mountain View


Uccle  Uccle


Leuven  Leuven


Thunder radar more information blitzortung!


Rain radar more information rain snow radar


Visitez nos sites météorologiques autres:

Template documentation
and downloads

And another site



Rapports METAR proximité

   
EBAW - Antwerp
Mise à jour: 14-12-2017 02:50
Pluie, Nuageux  
Pluie, Nuageux  
   Vent: SO 11.1 km/h
Vent: SO 11.1 km/h
Température: 2°C
éolien: -1°C
Point de rosée: 1°C
Humidité: 93%
Baromètre: 989 hPa
Nuageux: Nuageux
visibilité: More than 10 km
Détails des nuages: Peu de nuages 600 ft,
Partiellement nuageux 700 ft,
Nuageux 1800 ft
EBAW 140150Z AUTO 22006KT 200V260 9999 RA FEW006/// SCT007/// BKN018/// 02/01 Q0989
EBLG - Liège
Mise à jour: 14-12-2017 02:50
Pluie, Nuageux  
Pluie, Nuageux  
   Vent: OSO 42.6 km/h<br />Gust to 42.6 km/h
Vent: OSO 42.6 km/h
Gust to 42.6 km/h
Température: 3°C
éolien: -3°C
Point de rosée: 1°C
Humidité: 87%
Baromètre: 990 hPa
Nuageux: Nuageux
visibilité: More than 10 km
Détails des nuages: Nuageux 1000 ft
EBLG 140150Z 25023G35KT 9999 RA BKN010 03/01 Q0990 RESHRA TEMPO 26025G45KT 5000 -SHRASN BKN010CB
EBCV - Mons/Bergen
Mise à jour: 14-12-2017 02:55
Faible bruine, Nuageux  
Faible bruine, Nuageux  
   Vent: OSO 25.9 km/h
Vent: OSO 25.9 km/h
Température: 4°C
éolien: -1°C
Point de rosée: 2°C
Humidité: 87%
Baromètre: 992 hPa
Nuageux: Nuageux
visibilité: More than 10 km
Détails des nuages: Nuageux 2700 ft
EBCV 140155Z AUTO 25014KT 9999 -DZ BKN027/// 04/02 Q0992 BLU
EHBK - Maastricht
Mise à jour: 14-12-2017 02:55
Averses de pluie, Pluie, Neige, Nuageux  
Averses de pluie, Pluie, Neige, Nuageux  
   Vent: SO 31.5 km/h
Vent: SO 31.5 km/h
Température: 2°C
éolien: -4°C
Point de rosée: 1°C
Humidité: 93%
Baromètre: 990 hPa
Nuageux: Nuageux
visibilité: 2 km
Détails des nuages: Peu de nuages 500 ft,
Nuageux 800 ft,
Nuageux 1000 ft,
Peu de nuages 1500 ft
EHBK 140155Z AUTO 23017KT 190V250 2200 SHRASN FEW005 BKN008 BKN010 FEW015CB 02/01 Q0990 REDZ
ELLX - Luxemburg
Mise à jour: 14-12-2017 03:20
Pluie, Nuageux  
Pluie, Nuageux  
   Vent: Ouest 48.2 km/h<br />Gust to 48.2 km/h
Vent: Ouest 48.2 km/h
Gust to 48.2 km/h
Température: 4°C
éolien: -3°C
Point de rosée: 3°C
Humidité: 93%
Baromètre: 993 hPa
Nuageux: Nuageux
visibilité: 5 km
Détails des nuages: Peu de nuages 700 ft,
Partiellement nuageux 900 ft,
Nuageux 1300 ft
ELLX 140220Z AUTO 26026G38KT 240V310 5000 RA FEW007/// SCT009/// BKN013/// 04/03 Q0993 NOSIG
EBOS - Oostende
Mise à jour: 14-12-2017 03:20
Nuageux  
Nuageux  
   Vent: Ouest 63 km/h<br />Gust to 63 km/h
Vent: Ouest 63 km/h
Gust to 63 km/h
Température: 5°C
éolien: -2°C
Point de rosée: 1°C
Humidité: 76%
Baromètre: 991 hPa
Nuageux: Nuageux
visibilité: More than 10 km
Détails des nuages: Partiellement nuageux 1700 ft,
Nuageux 4300 ft
EBOS 140220Z 27034G45KT 9999 SCT017TCU BKN043 05/01 Q0991 TEMPO 4000 SHRA

Script développé par  Saratoga-weather.org Adapté pour le modèle par  Weerstation Leuven

Vous trouverez notre info météo Également à:

WeatherCloud

Weather Underground

AWEKAS

Citizen Weather Observer Program (CWOP)

Équipement que nous utilisons:

Station de Météo
Davis VP2

Programme Météo
Meteobridge

Provider
Webcreating

Davis VP2

Meteobridge

Webcreating

Mountain View Mountain View Mountain View Mountain View